createdAt,value
2017-09-07T00:00:43.531Z,98886.69
2017-09-07T00:03:16.242Z,98743.48
2017-09-07T00:05:48.121Z,98901.55
2017-09-07T00:08:20.009Z,98945.08
2017-09-07T00:10:51.105Z,98871.88
2017-09-07T00:13:23.251Z,98890.28
2017-09-07T00:15:54.441Z,98895.78
2017-09-07T00:18:26.454Z,98886.31
2017-09-07T00:20:58.644Z,98888.79
2017-09-07T00:23:30.432Z,98888.03
2017-09-07T00:26:02.535Z,98864.53
2017-09-07T00:28:34.387Z,98896.97
2017-09-07T00:31:06.675Z,98889.51
2017-09-07T00:33:38.338Z,98852.94
2017-09-07T00:36:13.398Z,98898.37
2017-09-07T00:38:44.858Z,98894.66
2017-09-07T00:41:17.982Z,98844.20
2017-09-07T00:43:50.102Z,98880.63
2017-09-07T00:46:22.098Z,98878.94
2017-09-07T00:48:54.822Z,98879.34
2017-09-07T00:51:26.872Z,98878.26
2017-09-07T00:53:59.670Z,98878.93
2017-09-07T00:56:31.380Z,98879.03
2017-09-07T00:59:03.790Z,98870.61
2017-09-07T01:01:38.409Z,98871.02
2017-09-07T01:04:11.547Z,98865.97
2017-09-07T01:06:42.973Z,98867.35
2017-09-07T01:09:16.706Z,98828.00
2017-09-07T01:11:49.053Z,98877.30
2017-09-07T01:14:21.451Z,98873.33
2017-09-07T01:16:52.970Z,98870.70
2017-09-07T01:19:24.702Z,98880.36
2017-09-07T01:21:56.398Z,98877.09
2017-09-07T01:24:28.187Z,98865.45
2017-09-07T01:26:59.740Z,98868.78
2017-09-07T01:29:31.714Z,98859.63
2017-09-07T01:32:03.345Z,98865.70
2017-09-07T01:34:34.484Z,98771.45
2017-09-07T01:37:06.025Z,98864.22
2017-09-07T01:39:38.091Z,98824.75
2017-09-07T01:42:09.926Z,98859.84
2017-09-07T01:44:42.955Z,98854.50
2017-09-07T01:47:15.099Z,98853.79
2017-09-07T01:49:47.222Z,98852.03
2017-09-07T01:52:19.033Z,98856.34
2017-09-07T01:54:50.537Z,98821.41
2017-09-07T01:57:22.681Z,98861.86
2017-09-07T01:59:54.394Z,98861.61
2017-09-07T02:02:26.262Z,98862.86
2017-09-07T02:04:58.629Z,98856.39
2017-09-07T02:07:30.194Z,98820.39
2017-09-07T02:10:07.269Z,98854.36
2017-09-07T02:15:37.618Z,98852.61
2017-09-07T02:18:11.133Z,98849.09
2017-09-07T02:20:46.873Z,98855.39
2017-09-07T02:23:24.637Z,98852.19
2017-09-07T02:25:58.101Z,98847.04
2017-09-07T02:28:33.670Z,98846.89
2017-09-07T02:31:22.080Z,98840.75
2017-09-07T02:34:10.049Z,98839.70
2017-09-07T02:36:48.153Z,98819.02
2017-09-07T02:39:25.936Z,98844.47
2017-09-07T02:42:06.726Z,98850.55
2017-09-07T02:44:46.064Z,98836.41
2017-09-07T02:47:36.165Z,98620.45
2017-09-07T02:50:44.081Z,98828.48
2017-09-07T02:53:29.662Z,98830.52
2017-09-07T02:56:07.929Z,98832.73
2017-09-07T02:58:43.877Z,98834.02
2017-09-07T03:01:22.854Z,98833.98
2017-09-07T03:04:00.141Z,98827.28
2017-09-07T03:06:42.980Z,98825.22
2017-09-07T03:09:21.106Z,98824.90
2017-09-07T03:12:11.208Z,98822.86
2017-09-07T03:14:49.407Z,98826.72
2017-09-07T03:17:34.975Z,98832.23
2017-09-07T03:20:24.142Z,98830.84
2017-09-07T03:23:00.318Z,98832.29
2017-09-07T03:25:46.826Z,98988.92
2017-09-07T03:28:21.976Z,98817.91
2017-09-07T03:31:11.796Z,98811.73
2017-09-07T03:33:54.993Z,98816.44
2017-09-07T03:36:51.312Z,98812.52
2017-09-07T03:39:47.242Z,98819.08
2017-09-07T03:42:34.978Z,98820.92
2017-09-07T03:45:15.347Z,98814.24
2017-09-07T03:48:06.871Z,98814.20
2017-09-07T03:51:00.053Z,98817.02
2017-09-07T03:53:55.146Z,98817.66
2017-09-07T03:56:33.162Z,98816.12
2017-09-07T03:59:15.373Z,98819.78
2017-09-07T04:01:53.372Z,98824.70
2017-09-07T04:04:28.949Z,98815.52
2017-09-07T04:07:08.375Z,98820.29
2017-09-07T04:09:50.076Z,98824.64
2017-09-07T04:12:35.449Z,98826.38
2017-09-07T04:15:16.732Z,98824.25
2017-09-07T04:17:59.858Z,98825.10
2017-09-07T04:20:46.788Z,98820.69
2017-09-07T04:23:23.580Z,98819.75
2017-09-07T04:26:02.285Z,98810.90
2017-09-07T04:28:37.532Z,98821.72
2017-09-07T04:31:25.389Z,98822.09
2017-09-07T04:33:59.963Z,98815.19
2017-09-07T04:36:40.149Z,98808.73
2017-09-07T04:39:22.371Z,98806.76
2017-09-07T04:41:58.219Z,98802.83
2017-09-07T04:44:29.760Z,98808.34
2017-09-07T04:47:01.861Z,98807.11
2017-09-07T04:49:33.196Z,98809.48
2017-09-07T04:52:06.439Z,98800.86
2017-09-07T04:54:37.671Z,98805.23
2017-09-07T04:57:10.951Z,98801.59
2017-09-07T04:59:42.940Z,98888.68
2017-09-07T05:02:22.736Z,98812.42
2017-09-07T05:04:54.325Z,98800.91
2017-09-07T05:07:26.202Z,98805.38
2017-09-07T05:09:57.409Z,98766.09
2017-09-07T05:12:28.848Z,98804.95
2017-09-07T05:15:01.754Z,98805.19
2017-09-07T05:17:36.242Z,98805.48
2017-09-07T05:20:08.560Z,98802.56
2017-09-07T05:22:42.443Z,98803.64
2017-09-07T05:25:19.601Z,98801.48
2017-09-07T05:27:52.130Z,98801.69
2017-09-07T05:30:23.367Z,98811.59
2017-09-07T05:32:55.078Z,98810.89
2017-09-07T05:35:26.425Z,98812.13
2017-09-07T05:37:57.511Z,98812.98
2017-09-07T05:40:29.198Z,98726.27
2017-09-07T05:43:00.508Z,98825.77
2017-09-07T05:45:32.036Z,98826.30
2017-09-07T05:48:04.224Z,98828.95
2017-09-07T05:50:35.297Z,98831.88
2017-09-07T05:53:07.433Z,98825.64
2017-09-07T05:55:38.562Z,98808.55
2017-09-07T05:58:11.363Z,98826.27
2017-09-07T06:00:44.983Z,98834.24
2017-09-07T06:03:16.380Z,98831.11
2017-09-07T06:05:47.606Z,98831.97
2017-09-07T06:08:18.768Z,98811.38
2017-09-07T06:10:51.382Z,98832.38
2017-09-07T06:13:22.762Z,98842.64
2017-09-07T06:15:54.357Z,98836.41
2017-09-07T06:18:25.429Z,98829.30
2017-09-07T06:20:56.917Z,98828.01
2017-09-07T06:23:29.073Z,98829.19
2017-09-07T06:26:01.167Z,98812.53
2017-09-07T06:28:32.277Z,98816.88
2017-09-07T06:31:03.426Z,98820.16
2017-09-07T06:33:34.488Z,98818.89
2017-09-07T06:36:05.611Z,98825.28
2017-09-07T06:38:36.563Z,98826.70
2017-09-07T06:41:08.639Z,98829.05
2017-09-07T06:43:41.302Z,98831.64
2017-09-07T06:46:14.537Z,98829.44
2017-09-07T06:48:47.094Z,98826.44
2017-09-07T06:51:18.445Z,98829.90
2017-09-07T06:53:50.208Z,98836.53
2017-09-07T06:56:22.021Z,98831.79
2017-09-07T06:58:53.518Z,98834.84
2017-09-07T07:01:25.029Z,98846.05
2017-09-07T07:03:56.093Z,98835.16
2017-09-07T07:06:27.654Z,98831.44
2017-09-07T07:08:59.587Z,98833.33
2017-09-07T07:11:30.756Z,98833.93
2017-09-07T07:14:01.957Z,98830.69
2017-09-07T07:16:33.437Z,98840.64
2017-09-07T07:19:04.743Z,98843.72
2017-09-07T07:21:36.966Z,98796.94
2017-09-07T07:24:09.206Z,98843.16
2017-09-07T07:26:40.717Z,98842.97
2017-09-07T07:29:13.550Z,98847.63
2017-09-07T07:31:44.736Z,98850.31
2017-09-07T07:34:15.925Z,98678.56
2017-09-07T07:36:47.139Z,98819.17
2017-09-07T07:39:18.885Z,98844.55
2017-09-07T07:41:50.354Z,98836.17
2017-09-07T07:44:21.919Z,98852.52
2017-09-07T07:46:53.326Z,98857.34
2017-09-07T07:49:24.430Z,98862.37
2017-09-07T07:51:56.134Z,98863.16
2017-09-07T07:54:27.241Z,98863.00
2017-09-07T07:57:00.502Z,98865.68
2017-09-07T07:59:31.647Z,98863.78
2017-09-07T08:02:04.170Z,98864.73
2017-09-07T08:04:35.389Z,98867.09
2017-09-07T08:07:07.320Z,98864.49
2017-09-07T08:09:41.290Z,98864.88
2017-09-07T08:12:15.395Z,98867.41
2017-09-07T08:14:47.571Z,98865.09
2017-09-07T08:17:19.510Z,98824.41
2017-09-07T08:19:51.425Z,98897.88
2017-09-07T08:22:22.874Z,98866.66
2017-09-07T08:24:54.325Z,98827.96
2017-09-07T08:27:25.468Z,98865.36
2017-09-07T08:30:15.960Z,98869.00
2017-09-07T08:32:59.349Z,98870.22
2017-09-07T08:35:35.896Z,98870.38
2017-09-07T08:38:07.377Z,98839.14
2017-09-07T08:40:38.835Z,98873.66
2017-09-07T08:43:13.513Z,98870.65
2017-09-07T08:45:45.640Z,98877.99
2017-09-07T08:48:17.649Z,98877.88
2017-09-07T08:50:48.840Z,98875.19
2017-09-07T08:53:20.291Z,98874.88
2017-09-07T08:55:51.458Z,98882.14
2017-09-07T08:58:22.585Z,98872.97
2017-09-07T09:00:53.725Z,98887.59
2017-09-07T09:03:24.792Z,98876.12
2017-09-07T09:05:56.312Z,98887.08
2017-09-07T09:08:27.546Z,98888.82
2017-09-07T09:10:59.947Z,98887.48
2017-09-07T09:13:31.441Z,98800.61
2017-09-07T09:16:03.099Z,98962.80
2017-09-07T09:18:34.229Z,98882.58
2017-09-07T09:21:05.250Z,98875.30
2017-09-07T09:23:36.518Z,98880.91
2017-09-07T09:26:08.255Z,98879.01
2017-09-07T09:28:39.424Z,98882.88
2017-09-07T09:31:15.215Z,98879.61
2017-09-07T09:33:46.809Z,98879.45
2017-09-07T09:36:18.947Z,98879.91
2017-09-07T09:38:51.074Z,98875.88
2017-09-07T09:41:23.823Z,98873.50
2017-09-07T09:43:55.778Z,98876.39
2017-09-07T09:46:30.520Z,98874.02
2017-09-07T09:49:01.902Z,98875.91
2017-09-07T09:51:35.485Z,98875.75
2017-09-07T09:54:12.404Z,98871.02
2017-09-07T09:56:44.194Z,98900.42
2017-09-07T09:59:16.474Z,98789.79
2017-09-07T10:01:48.212Z,98875.24
2017-09-07T10:04:20.197Z,98871.41
2017-09-07T10:06:51.944Z,98871.95
2017-09-07T10:09:23.565Z,98868.71
2017-09-07T10:11:54.865Z,98909.23
2017-09-07T10:14:26.247Z,98865.83
2017-09-07T10:16:57.957Z,98866.42
2017-09-07T10:19:29.237Z,98866.63
2017-09-07T10:22:00.276Z,98850.36
2017-09-07T10:24:32.225Z,98859.34
2017-09-07T10:27:03.293Z,98848.86
2017-09-07T10:29:36.049Z,98854.79
2017-09-07T10:32:07.174Z,98851.94
2017-09-07T10:34:38.463Z,98849.25
2017-09-07T10:37:12.055Z,98848.86
2017-09-07T10:39:43.371Z,98827.74
2017-09-07T10:42:19.158Z,98835.89
2017-09-07T10:44:50.298Z,98835.89
2017-09-07T10:47:21.452Z,98835.73
2017-09-07T10:49:54.075Z,98829.20
2017-09-07T10:52:25.323Z,98830.00
2017-09-07T10:54:56.703Z,98830.39
2017-09-07T10:57:27.762Z,98832.29
2017-09-07T10:59:59.109Z,98831.73
2017-09-07T11:02:30.432Z,98825.80
2017-09-07T11:05:01.649Z,98825.80
2017-09-07T11:07:33.582Z,98816.62
2017-09-07T11:10:05.659Z,98818.59
2017-09-07T11:12:38.704Z,98815.35
2017-09-07T11:15:14.022Z,98716.20
2017-09-07T11:17:45.751Z,98779.51
2017-09-07T11:20:18.282Z,98670.92
2017-09-07T11:22:50.223Z,98914.03
2017-09-07T11:25:21.747Z,98819.94
2017-09-07T11:27:52.965Z,98814.56
2017-09-07T11:30:24.749Z,98811.70
2017-09-07T11:32:56.951Z,98803.09
2017-09-07T11:35:28.914Z,98811.72
2017-09-07T11:38:00.139Z,98811.00
2017-09-07T11:40:31.422Z,98819.27
2017-09-07T11:43:03.547Z,98801.62
2017-09-07T11:45:35.225Z,98656.66
2017-09-07T11:48:13.654Z,98803.76
2017-09-07T11:50:45.188Z,98810.72
2017-09-07T11:53:22.387Z,98801.53
2017-09-07T11:55:55.241Z,98753.55
2017-09-07T11:58:26.992Z,98797.22
2017-09-07T12:00:59.129Z,98792.19
2017-09-07T12:03:31.318Z,98788.32
2017-09-07T12:06:03.011Z,98787.38
2017-09-07T12:08:35.961Z,98789.87
2017-09-07T12:11:07.297Z,98753.55
2017-09-07T12:13:38.841Z,98764.49
2017-09-07T12:16:12.712Z,98784.13
2017-09-07T12:18:44.384Z,98781.05
2017-09-07T12:21:17.106Z,98776.82
2017-09-07T12:23:49.154Z,98771.24
2017-09-07T12:26:20.510Z,98774.33
2017-09-07T12:28:51.855Z,98729.72
2017-09-07T12:31:23.207Z,98756.08
2017-09-07T12:33:54.550Z,98807.34
2017-09-07T12:36:27.154Z,98810.27
2017-09-07T12:38:58.298Z,98774.13
2017-09-07T12:41:30.168Z,98743.39
2017-09-07T12:44:02.112Z,98768.03
2017-09-07T12:46:33.620Z,98768.43
2017-09-07T12:49:04.840Z,98772.06
2017-09-07T12:51:38.931Z,98769.38
2017-09-07T12:54:14.924Z,98614.68
2017-09-07T12:56:46.793Z,98766.37
2017-09-07T12:59:19.260Z,98762.33
2017-09-07T13:01:51.278Z,98762.33
2017-09-07T13:04:22.613Z,98694.73
2017-09-07T13:06:54.104Z,98757.34
2017-09-07T13:09:25.947Z,98761.94
2017-09-07T13:11:59.223Z,98763.28
2017-09-07T13:14:30.762Z,98765.81
2017-09-07T13:17:03.712Z,98776.01
2017-09-07T13:19:36.145Z,98779.25
2017-09-07T13:22:11.022Z,98650.97
2017-09-07T13:24:42.945Z,98778.86
2017-09-07T13:27:16.828Z,98774.83
2017-09-07T13:29:51.686Z,98724.77
2017-09-07T13:32:24.129Z,98802.14
2017-09-07T13:34:55.492Z,98797.84
2017-09-07T13:37:28.728Z,98810.73
2017-09-07T13:40:02.669Z,98810.73
2017-09-07T13:42:35.964Z,98817.45
2017-09-07T13:45:12.539Z,98813.19
2017-09-07T13:47:45.478Z,98807.41
2017-09-07T13:50:17.487Z,98805.91
2017-09-07T13:52:49.057Z,98806.07
2017-09-07T13:55:20.966Z,98799.34
2017-09-07T13:57:53.319Z,98802.83
2017-09-07T14:00:25.390Z,98797.45
2017-09-07T14:02:57.212Z,98790.10
2017-09-07T14:05:28.593Z,98782.59
2017-09-07T14:08:00.480Z,98782.78
2017-09-07T14:10:33.798Z,98719.60
2017-09-07T14:13:11.216Z,98771.52
2017-09-07T14:15:44.227Z,98775.94
2017-09-07T14:18:17.333Z,98772.30
2017-09-07T14:20:50.160Z,98768.43
2017-09-07T14:23:21.510Z,98773.81
2017-09-07T14:25:52.935Z,98768.00
2017-09-07T14:28:25.106Z,98775.83
2017-09-07T14:30:56.930Z,98768.55
2017-09-07T14:33:28.782Z,98756.08
2017-09-07T14:36:00.287Z,98685.46
2017-09-07T14:38:32.950Z,98764.91
2017-09-07T14:41:07.486Z,98747.18
2017-09-07T14:43:39.510Z,98766.45
2017-09-07T14:46:14.393Z,98765.34
2017-09-07T14:48:46.479Z,98736.38
2017-09-07T14:51:17.915Z,98754.20
2017-09-07T14:53:50.894Z,98755.77
2017-09-07T14:56:22.229Z,98757.67
2017-09-07T14:58:54.781Z,98750.72
2017-09-07T15:01:26.013Z,98746.76
2017-09-07T15:03:57.290Z,98744.46
2017-09-07T15:06:29.157Z,98742.27
2017-09-07T15:09:00.919Z,98744.69
2017-09-07T15:11:32.268Z,98748.33
2017-09-07T15:14:04.625Z,98751.58
2017-09-07T15:16:38.063Z,98746.83
2017-09-07T15:19:09.338Z,98720.14
2017-09-07T15:21:40.447Z,98752.13
2017-09-07T15:24:11.990Z,98736.28
2017-09-07T15:26:43.942Z,98747.94
2017-09-07T15:29:15.556Z,98751.41
2017-09-07T15:31:47.092Z,98751.25
2017-09-07T15:34:19.435Z,98746.04
2017-09-07T15:36:50.784Z,98742.56
2017-09-07T15:39:23.361Z,98747.31
2017-09-07T15:41:54.949Z,98735.05
2017-09-07T15:44:26.602Z,98734.95
2017-09-07T15:46:57.772Z,98737.05
2017-09-07T15:49:29.456Z,98732.47
2017-09-07T15:52:01.237Z,98717.11
2017-09-07T15:54:32.966Z,98714.88
2017-09-07T15:57:05.274Z,98729.78
2017-09-07T15:59:39.711Z,98731.36
2017-09-07T16:02:16.219Z,98721.39
2017-09-07T16:04:48.084Z,98685.67
2017-09-07T16:07:19.284Z,98733.09
2017-09-07T16:09:51.104Z,98729.06
2017-09-07T16:12:22.579Z,98681.50
2017-09-07T16:14:56.136Z,98728.50
2017-09-07T16:17:27.779Z,98734.27
2017-09-07T16:20:02.461Z,98730.41
2017-09-07T16:22:35.720Z,98727.16
2017-09-07T16:25:10.094Z,98724.08
2017-09-07T16:27:43.793Z,98722.17
2017-09-07T16:30:16.796Z,98721.13
2017-09-07T16:32:50.696Z,98728.24
2017-09-07T16:35:23.835Z,98726.27
2017-09-07T16:37:55.594Z,98681.33
2017-09-07T16:40:27.616Z,98704.98
2017-09-07T16:42:59.403Z,98722.24
2017-09-07T16:45:31.540Z,98721.84
2017-09-07T16:48:03.482Z,98720.27
2017-09-07T16:50:36.105Z,98717.58
2017-09-07T16:53:08.660Z,98722.41
2017-09-07T16:55:45.157Z,98719.32
2017-09-07T16:58:18.235Z,98720.11
2017-09-07T17:00:50.028Z,98722.02
2017-09-07T17:03:22.302Z,98726.44
2017-09-07T17:05:54.593Z,98697.63
2017-09-07T17:08:27.038Z,98729.97
2017-09-07T17:11:02.862Z,98732.27
2017-09-07T17:13:34.463Z,98730.34
2017-09-07T17:16:07.759Z,98726.50
2017-09-07T17:18:41.564Z,98680.66
2017-09-07T17:24:54.473Z,98725.73
2017-09-07T17:27:26.082Z,98732.20
2017-09-07T17:29:58.139Z,98727.84
2017-09-07T17:32:33.822Z,98725.70
2017-09-07T17:35:07.640Z,98728.00
2017-09-07T17:37:40.120Z,98722.23
2017-09-07T17:40:13.181Z,98732.03
2017-09-07T17:42:45.439Z,98730.13
2017-09-07T17:45:17.344Z,98723.97
2017-09-07T17:47:51.187Z,98728.89
2017-09-07T17:50:24.065Z,98729.02
2017-09-07T17:52:56.412Z,98724.19
2017-09-07T17:55:28.561Z,98675.16
2017-09-07T17:58:01.813Z,98724.75
2017-09-07T18:00:33.388Z,98727.05
2017-09-07T18:03:04.716Z,98730.36
2017-09-07T18:05:36.723Z,98724.62
2017-09-07T18:08:07.909Z,98725.63
2017-09-07T18:10:40.641Z,98732.52
2017-09-07T18:13:14.556Z,98732.52
2017-09-07T18:15:46.527Z,98733.47
2017-09-07T18:18:18.176Z,98609.84
2017-09-07T18:20:49.941Z,98739.01
2017-09-07T18:23:21.304Z,98743.27
2017-09-07T18:25:52.712Z,98745.73
2017-09-07T18:28:28.150Z,98748.65
2017-09-07T18:30:59.809Z,98750.71
2017-09-07T18:33:31.069Z,98753.80
2017-09-07T18:36:04.977Z,98747.70
2017-09-07T18:38:37.885Z,98778.55
2017-09-07T18:41:10.936Z,98749.53
2017-09-07T18:43:44.009Z,98662.84
2017-09-07T18:46:21.927Z,98755.92
2017-09-07T18:48:57.145Z,98758.84
2017-09-07T18:51:30.080Z,98750.55
2017-09-07T19:04:16.596Z,98635.85
2017-09-07T19:13:08.261Z,98740.64
2017-09-07T19:16:26.482Z,98634.93
2017-09-07T19:19:47.940Z,98700.11
2017-09-07T19:22:58.055Z,98754.39
2017-09-07T19:25:31.233Z,98760.36
2017-09-07T19:28:02.626Z,98758.69
2017-09-07T19:30:34.097Z,98741.99
2017-09-07T19:33:06.679Z,98742.55
2017-09-07T19:35:42.284Z,98757.48
2017-09-07T19:38:14.356Z,98758.83
2017-09-07T19:40:45.750Z,98754.80
2017-09-07T19:43:18.510Z,98793.70
2017-09-07T19:45:51.554Z,98755.68
2017-09-07T19:48:22.898Z,98763.19
2017-09-07T19:50:54.258Z,98759.71
2017-09-07T19:53:30.096Z,98751.45
2017-09-07T19:56:01.447Z,98762.20
2017-09-07T19:58:32.600Z,98756.87
2017-09-07T20:01:04.415Z,98759.51
2017-09-07T20:03:36.175Z,98759.94
2017-09-07T20:07:09.690Z,98705.67
2017-09-07T20:09:41.768Z,98737.20
2017-09-07T20:12:14.092Z,98753.34
2017-09-07T20:14:46.262Z,98750.95
2017-09-07T20:17:18.548Z,98747.58
2017-09-07T20:19:50.754Z,98708.91
2017-09-07T20:22:26.120Z,98741.02
2017-09-07T20:24:57.845Z,98715.27
2017-09-07T20:27:28.952Z,98735.31
2017-09-07T20:30:00.253Z,98715.10
2017-09-07T20:32:32.195Z,98718.73
2017-09-07T20:35:03.969Z,98715.30
2017-09-07T20:37:36.044Z,98728.59
2017-09-07T20:40:07.684Z,98747.05
2017-09-07T20:42:39.430Z,98726.72
2017-09-07T20:45:17.771Z,98685.61
2017-09-07T20:47:48.852Z,98714.69
2017-09-07T20:50:20.353Z,98715.02
2017-09-07T20:52:52.088Z,98744.19
2017-09-07T20:55:23.276Z,98706.80
2017-09-07T20:57:54.762Z,98669.02
2017-09-07T21:00:26.846Z,98704.50
2017-09-07T21:03:01.439Z,98708.37
2017-09-07T21:05:33.710Z,98718.95
2017-09-07T21:08:06.636Z,98685.86
2017-09-07T21:10:38.142Z,98643.38
2017-09-07T21:13:09.473Z,98700.23
2017-09-07T21:15:40.763Z,98656.67
2017-09-07T21:18:15.174Z,98698.63
2017-09-07T21:20:46.346Z,98685.98
2017-09-07T21:23:18.774Z,98688.92
2017-09-07T21:25:50.761Z,98672.20
2017-09-07T21:28:22.226Z,98653.92
2017-09-07T21:30:54.089Z,98669.51
2017-09-07T21:33:25.390Z,98686.24
2017-09-07T21:35:57.245Z,98678.47
2017-09-07T21:38:29.089Z,98671.36
2017-09-07T21:41:00.748Z,98675.59
2017-09-07T21:43:31.951Z,98671.55
2017-09-07T21:46:03.676Z,98670.30
2017-09-07T21:48:35.271Z,98677.88
2017-09-07T21:51:06.928Z,98670.77
2017-09-07T21:53:38.183Z,98650.08
2017-09-07T21:56:09.780Z,98645.61
2017-09-07T21:58:41.909Z,98664.77
2017-09-07T22:01:16.709Z,98666.60
2017-09-07T22:03:48.759Z,98661.39
2017-09-07T22:06:20.095Z,98562.19
2017-09-07T22:08:51.830Z,98640.89
2017-09-07T22:11:23.700Z,98658.70
2017-09-07T22:13:54.985Z,98660.83
2017-09-07T22:16:26.592Z,98659.72
2017-09-07T22:18:57.934Z,98636.30
2017-09-07T22:21:30.713Z,98725.64
2017-09-07T22:24:02.674Z,98647.00
2017-09-07T22:26:34.538Z,98642.66
2017-09-07T22:29:06.323Z,98640.48
2017-09-07T22:31:38.563Z,98645.19
2017-09-07T22:34:10.366Z,98640.75
2017-09-07T22:36:42.507Z,98641.13
2017-09-07T22:39:17.070Z,98638.63
2017-09-07T22:41:49.539Z,98641.58
2017-09-07T22:44:23.931Z,98480.38
2017-09-07T22:46:55.588Z,98639.89
2017-09-07T22:49:27.564Z,98636.87
2017-09-07T22:51:59.262Z,98561.27
2017-09-07T22:54:31.387Z,98623.60
2017-09-07T22:57:04.265Z,98627.03
2017-09-07T22:59:35.719Z,98631.66
2017-09-07T23:02:07.555Z,98624.56
2017-09-07T23:04:39.072Z,98630.33
2017-09-07T23:07:13.476Z,98623.34
2017-09-07T23:09:44.775Z,98598.66
2017-09-07T23:12:17.964Z,98598.42
2017-09-07T23:14:49.103Z,98609.66
2017-09-07T23:17:22.238Z,98607.13
2017-09-07T23:19:54.056Z,98604.54
2017-09-07T23:22:26.489Z,98604.23
2017-09-07T23:24:57.857Z,98602.96
2017-09-07T23:27:29.659Z,98599.66
2017-09-07T23:30:01.398Z,98598.31
2017-09-07T23:32:33.171Z,98596.98
2017-09-07T23:35:05.503Z,98596.38
2017-09-07T23:37:37.446Z,98594.08
2017-09-07T23:40:12.565Z,98587.71
2017-09-07T23:42:44.528Z,98596.86
2017-09-07T23:45:17.364Z,98592.19
2017-09-07T23:47:48.997Z,98588.45
2017-09-07T23:50:20.698Z,98587.42
2017-09-07T23:52:52.489Z,98587.41
2017-09-07T23:55:25.013Z,98589.84
2017-09-07T23:57:56.901Z,98589.85
